sensor_id;sensor_type;location;lat;lon;timestamp;pressure;altitude;pressure_sealevel;temperature
11424;BMP180;5768;51.476;7.210;2023-03-04T00:04:23;101125.00;;;9.00
11424;BMP180;5768;51.476;7.210;2023-03-04T00:09:27;101124.00;;;9.00
11424;BMP180;5768;51.476;7.210;2023-03-04T00:14:29;101125.00;;;9.10
11424;BMP180;5768;51.476;7.210;2023-03-04T00:19:31;101120.00;;;9.10
11424;BMP180;5768;51.476;7.210;2023-03-04T00:24:36;101130.00;;;9.10
11424;BMP180;5768;51.476;7.210;2023-03-04T00:29:38;101124.00;;;9.10
11424;BMP180;5768;51.476;7.210;2023-03-04T00:34:40;101123.00;;;9.10
11424;BMP180;5768;51.476;7.210;2023-03-04T00:39:44;101113.00;;;9.00
11424;BMP180;5768;51.476;7.210;2023-03-04T00:44:46;101115.00;;;9.10
11424;BMP180;5768;51.476;7.210;2023-03-04T00:49:49;101114.00;;;9.10
11424;BMP180;5768;51.476;7.210;2023-03-04T00:54:52;101112.00;;;9.10
11424;BMP180;5768;51.476;7.210;2023-03-04T00:59:55;101105.00;;;9.10
11424;BMP180;5768;51.476;7.210;2023-03-04T01:04:57;101096.00;;;9.10
11424;BMP180;5768;51.476;7.210;2023-03-04T01:10:00;101100.00;;;9.20
11424;BMP180;5768;51.476;7.210;2023-03-04T01:15:03;101102.00;;;9.30
11424;BMP180;5768;51.476;7.210;2023-03-04T01:20:08;101093.00;;;9.20
11424;BMP180;5768;51.476;7.210;2023-03-04T01:25:12;101102.00;;;9.20
11424;BMP180;5768;51.476;7.210;2023-03-04T01:30:14;101083.00;;;9.20
11424;BMP180;5768;51.476;7.210;2023-03-04T01:35:16;101080.00;;;9.20
11424;BMP180;5768;51.476;7.210;2023-03-04T01:40:20;101077.00;;;9.20
11424;BMP180;5768;51.476;7.210;2023-03-04T01:45:22;101077.00;;;9.10
11424;BMP180;5768;51.476;7.210;2023-03-04T01:50:30;101084.00;;;9.10
11424;BMP180;5768;51.476;7.210;2023-03-04T01:55:35;101082.00;;;9.20
11424;BMP180;5768;51.476;7.210;2023-03-04T02:00:38;101070.00;;;9.30
11424;BMP180;5768;51.476;7.210;2023-03-04T02:05:45;101071.00;;;9.30
11424;BMP180;5768;51.476;7.210;2023-03-04T02:10:50;101066.00;;;9.20
11424;BMP180;5768;51.476;7.210;2023-03-04T02:15:52;101065.00;;;9.10
11424;BMP180;5768;51.476;7.210;2023-03-04T02:21:06;101056.00;;;9.00
11424;BMP180;5768;51.476;7.210;2023-03-04T02:26:15;101058.00;;;9.00
11424;BMP180;5768;51.476;7.210;2023-03-04T02:31:25;101066.00;;;9.10
11424;BMP180;5768;51.476;7.210;2023-03-04T02:36:29;101048.00;;;9.00
11424;BMP180;5768;51.476;7.210;2023-03-04T02:41:33;101056.00;;;8.90
11424;BMP180;5768;51.476;7.210;2023-03-04T02:46:35;101045.00;;;9.00
11424;BMP180;5768;51.476;7.210;2023-03-04T02:51:38;101037.00;;;9.00
11424;BMP180;5768;51.476;7.210;2023-03-04T02:56:45;101035.00;;;9.00
11424;BMP180;5768;51.476;7.210;2023-03-04T03:01:48;101039.00;;;9.00
11424;BMP180;5768;51.476;7.210;2023-03-04T03:06:50;101028.00;;;8.90
11424;BMP180;5768;51.476;7.210;2023-03-04T03:11:54;101027.00;;;9.00
11424;BMP180;5768;51.476;7.210;2023-03-04T03:16:56;101026.00;;;8.90
11424;BMP180;5768;51.476;7.210;2023-03-04T03:21:58;101021.00;;;9.00
11424;BMP180;5768;51.476;7.210;2023-03-04T03:27:01;101022.00;;;8.90
11424;BMP180;5768;51.476;7.210;2023-03-04T03:32:04;101016.00;;;8.80
11424;BMP180;5768;51.476;7.210;2023-03-04T03:37:06;101022.00;;;8.80
11424;BMP180;5768;51.476;7.210;2023-03-04T03:42:09;101007.00;;;8.70
11424;BMP180;5768;51.476;7.210;2023-03-04T03:47:12;101007.00;;;8.80
11424;BMP180;5768;51.476;7.210;2023-03-04T03:52:14;101014.00;;;8.80
11424;BMP180;5768;51.476;7.210;2023-03-04T03:57:17;101001.00;;;8.80
11424;BMP180;5768;51.476;7.210;2023-03-04T04:02:19;101008.00;;;8.80
11424;BMP180;5768;51.476;7.210;2023-03-04T04:07:21;101003.00;;;8.80
11424;BMP180;5768;51.476;7.210;2023-03-04T04:12:25;101000.00;;;8.80
11424;BMP180;5768;51.476;7.210;2023-03-04T04:17:27;100996.00;;;8.80
11424;BMP180;5768;51.476;7.210;2023-03-04T04:22:29;100996.00;;;8.80
11424;BMP180;5768;51.476;7.210;2023-03-04T04:27:33;101000.00;;;8.80
11424;BMP180;5768;51.476;7.210;2023-03-04T04:32:35;101001.00;;;8.90
11424;BMP180;5768;51.476;7.210;2023-03-04T04:37:37;101001.00;;;8.90
11424;BMP180;5768;51.476;7.210;2023-03-04T04:42:40;101010.00;;;8.90
11424;BMP180;5768;51.476;7.210;2023-03-04T04:47:42;101002.00;;;8.80
11424;BMP180;5768;51.476;7.210;2023-03-04T04:52:45;101013.00;;;8.90
11424;BMP180;5768;51.476;7.210;2023-03-04T04:57:48;101007.00;;;8.80
11424;BMP180;5768;51.476;7.210;2023-03-04T05:02:50;101013.00;;;8.80
11424;BMP180;5768;51.476;7.210;2023-03-04T05:07:52;101013.00;;;8.80
11424;BMP180;5768;51.476;7.210;2023-03-04T05:12:56;101018.00;;;8.70
11424;BMP180;5768;51.476;7.210;2023-03-04T05:17:58;101003.00;;;8.80
11424;BMP180;5768;51.476;7.210;2023-03-04T05:23:00;101010.00;;;8.80
11424;BMP180;5768;51.476;7.210;2023-03-04T05:28:03;101012.00;;;8.70
11424;BMP180;5768;51.476;7.210;2023-03-04T05:33:07;101001.00;;;8.70
11424;BMP180;5768;51.476;7.210;2023-03-04T05:38:13;101006.00;;;8.70
11424;BMP180;5768;51.476;7.210;2023-03-04T05:43:16;101005.00;;;8.80
11424;BMP180;5768;51.476;7.210;2023-03-04T05:48:18;100998.00;;;8.70
11424;BMP180;5768;51.476;7.210;2023-03-04T05:53:21;101001.00;;;8.70
11424;BMP180;5768;51.476;7.210;2023-03-04T05:58:25;101006.00;;;8.70
11424;BMP180;5768;51.476;7.210;2023-03-04T06:03:27;101012.00;;;8.70
11424;BMP180;5768;51.476;7.210;2023-03-04T06:08:29;101014.00;;;8.80
11424;BMP180;5768;51.476;7.210;2023-03-04T06:13:33;101020.00;;;8.80
11424;BMP180;5768;51.476;7.210;2023-03-04T06:18:35;101018.00;;;8.80
11424;BMP180;5768;51.476;7.210;2023-03-04T06:23:37;101024.00;;;8.90
11424;BMP180;5768;51.476;7.210;2023-03-04T06:28:41;101028.00;;;8.80
11424;BMP180;5768;51.476;7.210;2023-03-04T06:33:43;101035.00;;;8.90
11424;BMP180;5768;51.476;7.210;2023-03-04T06:38:46;101038.00;;;8.80
11424;BMP180;5768;51.476;7.210;2023-03-04T06:43:52;101029.00;;;8.80
11424;BMP180;5768;51.476;7.210;2023-03-04T06:48:55;101037.00;;;8.80
11424;BMP180;5768;51.476;7.210;2023-03-04T06:53:57;101036.00;;;8.80
11424;BMP180;5768;51.476;7.210;2023-03-04T06:59:01;101048.00;;;8.80
11424;BMP180;5768;51.476;7.210;2023-03-04T07:04:03;101053.00;;;8.90
11424;BMP180;5768;51.476;7.210;2023-03-04T07:09:06;101057.00;;;8.80
11424;BMP180;5768;51.476;7.210;2023-03-04T07:14:09;101055.00;;;8.80
11424;BMP180;5768;51.476;7.210;2023-03-04T07:19:11;101056.00;;;8.90
11424;BMP180;5768;51.476;7.210;2023-03-04T07:24:14;101054.00;;;9.00
11424;BMP180;5768;51.476;7.210;2023-03-04T07:29:17;101055.00;;;9.10
11424;BMP180;5768;51.476;7.210;2023-03-04T07:34:19;101059.00;;;9.10
11424;BMP180;5768;51.476;7.210;2023-03-04T07:39:21;101066.00;;;9.10
11424;BMP180;5768;51.476;7.210;2023-03-04T07:44:25;101067.00;;;9.10
11424;BMP180;5768;51.476;7.210;2023-03-04T07:49:27;101064.00;;;9.00
11424;BMP180;5768;51.476;7.210;2023-03-04T07:54:29;101071.00;;;8.90
11424;BMP180;5768;51.476;7.210;2023-03-04T07:59:32;101060.00;;;9.10
11424;BMP180;5768;51.476;7.210;2023-03-04T08:04:37;101068.00;;;9.30
11424;BMP180;5768;51.476;7.210;2023-03-04T08:09:40;101071.00;;;9.70
11424;BMP180;5768;51.476;7.210;2023-03-04T08:14:44;101078.00;;;9.90
11424;BMP180;5768;51.476;7.210;2023-03-04T08:19:46;101076.00;;;9.90
11424;BMP180;5768;51.476;7.210;2023-03-04T08:24:48;101070.00;;;10.00
11424;BMP180;5768;51.476;7.210;2023-03-04T08:29:52;101075.00;;;10.10
11424;BMP180;5768;51.476;7.210;2023-03-04T08:34:54;101077.00;;;10.20
11424;BMP180;5768;51.476;7.210;2023-03-04T08:39:56;101075.00;;;10.30
11424;BMP180;5768;51.476;7.210;2023-03-04T08:45:00;101072.00;;;10.30
11424;BMP180;5768;51.476;7.210;2023-03-04T08:50:02;101070.00;;;10.50
11424;BMP180;5768;51.476;7.210;2023-03-04T08:55:06;101068.00;;;10.40
11424;BMP180;5768;51.476;7.210;2023-03-04T09:00:12;101065.00;;;10.50
11424;BMP180;5768;51.476;7.210;2023-03-04T09:05:14;101078.00;;;10.50
11424;BMP180;5768;51.476;7.210;2023-03-04T09:10:17;101078.00;;;10.50
11424;BMP180;5768;51.476;7.210;2023-03-04T09:15:20;101080.00;;;10.30
11424;BMP180;5768;51.476;7.210;2023-03-04T09:20:22;101072.00;;;10.00
11424;BMP180;5768;51.476;7.210;2023-03-04T09:25:24;101079.00;;;9.90
11424;BMP180;5768;51.476;7.210;2023-03-04T09:30:28;101069.00;;;10.10
11424;BMP180;5768;51.476;7.210;2023-03-04T09:35:30;101064.00;;;10.20
11424;BMP180;5768;51.476;7.210;2023-03-04T09:40:39;101063.00;;;10.00
11424;BMP180;5768;51.476;7.210;2023-03-04T09:45:49;101066.00;;;10.00
11424;BMP180;5768;51.476;7.210;2023-03-04T09:51:10;101065.00;;;9.90
11424;BMP180;5768;51.476;7.210;2023-03-04T09:56:15;101060.00;;;10.00
11424;BMP180;5768;51.476;7.210;2023-03-04T10:01:25;101062.00;;;10.30
11424;BMP180;5768;51.476;7.210;2023-03-04T10:06:31;101072.00;;;10.30
11424;BMP180;5768;51.476;7.210;2023-03-04T10:11:40;101053.00;;;10.30
11424;BMP180;5768;51.476;7.210;2023-03-04T10:16:50;101050.00;;;10.30
11424;BMP180;5768;51.476;7.210;2023-03-04T10:21:53;101049.00;;;10.20
11424;BMP180;5768;51.476;7.210;2023-03-04T10:27:04;101046.00;;;10.10
11424;BMP180;5768;51.476;7.210;2023-03-04T10:32:13;101055.00;;;10.30
11424;BMP180;5768;51.476;7.210;2023-03-04T10:37:17;101044.00;;;10.40
11424;BMP180;5768;51.476;7.210;2023-03-04T10:42:27;101040.00;;;10.40
11424;BMP180;5768;51.476;7.210;2023-03-04T10:47:38;101039.00;;;10.40
11424;BMP180;5768;51.476;7.210;2023-03-04T10:52:46;101031.00;;;10.20
11424;BMP180;5768;51.476;7.210;2023-03-04T10:57:54;101043.00;;;10.20
11424;BMP180;5768;51.476;7.210;2023-03-04T11:03:28;101037.00;;;10.10
11424;BMP180;5768;51.476;7.210;2023-03-04T11:08:34;101033.00;;;10.00
11424;BMP180;5768;51.476;7.210;2023-03-04T11:13:36;101033.00;;;10.10
11424;BMP180;5768;51.476;7.210;2023-03-04T11:18:43;101026.00;;;10.10
11424;BMP180;5768;51.476;7.210;2023-03-04T11:23:51;101011.00;;;10.60
11424;BMP180;5768;51.476;7.210;2023-03-04T11:29:01;101015.00;;;10.90
11424;BMP180;5768;51.476;7.210;2023-03-04T11:34:21;101017.00;;;10.50
11424;BMP180;5768;51.476;7.210;2023-03-04T11:39:33;101011.00;;;10.60
11424;BMP180;5768;51.476;7.210;2023-03-04T11:44:37;101001.00;;;10.70
11424;BMP180;5768;51.476;7.210;2023-03-04T11:50:09;100997.00;;;11.50
11424;BMP180;5768;51.476;7.210;2023-03-04T11:55:35;101001.00;;;12.00
11424;BMP180;5768;51.476;7.210;2023-03-04T12:00:47;100991.00;;;11.80
11424;BMP180;5768;51.476;7.210;2023-03-04T12:06:01;100975.00;;;11.50
11424;BMP180;5768;51.476;7.210;2023-03-04T12:11:15;100979.00;;;11.10
11424;BMP180;5768;51.476;7.210;2023-03-04T12:16:48;100978.00;;;11.00
11424;BMP180;5768;51.476;7.210;2023-03-04T12:22:17;100959.00;;;10.90
11424;BMP180;5768;51.476;7.210;2023-03-04T12:27:32;100956.00;;;10.90
11424;BMP180;5768;51.476;7.210;2023-03-04T12:32:48;100947.00;;;10.70
11424;BMP180;5768;51.476;7.210;2023-03-04T12:38:14;100938.00;;;10.80
11424;BMP180;5768;51.476;7.210;2023-03-04T12:43:41;100935.00;;;11.00
11424;BMP180;5768;51.476;7.210;2023-03-04T12:49:01;100930.00;;;10.90
11424;BMP180;5768;51.476;7.210;2023-03-04T12:54:27;100926.00;;;10.80
11424;BMP180;5768;51.476;7.210;2023-03-04T12:59:36;100924.00;;;11.00
11424;BMP180;5768;51.476;7.210;2023-03-04T13:04:52;100923.00;;;10.90
11424;BMP180;5768;51.476;7.210;2023-03-04T13:10:09;100917.00;;;10.70
11424;BMP180;5768;51.476;7.210;2023-03-04T13:15:29;100923.00;;;10.70
11424;BMP180;5768;51.476;7.210;2023-03-04T13:20:36;100912.00;;;10.90
11424;BMP180;5768;51.476;7.210;2023-03-04T13:25:41;100914.00;;;11.00
11424;BMP180;5768;51.476;7.210;2023-03-04T13:31:11;100913.00;;;10.80
11424;BMP180;5768;51.476;7.210;2023-03-04T13:36:54;100895.00;;;10.70
11424;BMP180;5768;51.476;7.210;2023-03-04T13:41:58;100897.00;;;10.70
11424;BMP180;5768;51.476;7.210;2023-03-04T13:47:08;100886.00;;;10.70
11424;BMP180;5768;51.476;7.210;2023-03-04T13:52:39;100888.00;;;10.70
11424;BMP180;5768;51.476;7.210;2023-03-04T13:57:50;100873.00;;;10.90
11424;BMP180;5768;51.476;7.210;2023-03-04T14:02:52;100877.00;;;11.30
11424;BMP180;5768;51.476;7.210;2023-03-04T14:07:54;100872.00;;;11.50
11424;BMP180;5768;51.476;7.210;2023-03-04T14:12:59;100864.00;;;11.30
11424;BMP180;5768;51.476;7.210;2023-03-04T14:18:04;100865.00;;;11.20
11424;BMP180;5768;51.476;7.210;2023-03-04T14:23:24;100862.00;;;11.10
11424;BMP180;5768;51.476;7.210;2023-03-04T14:28:28;100866.00;;;11.10
11424;BMP180;5768;51.476;7.210;2023-03-04T14:33:30;100857.00;;;11.20
11424;BMP180;5768;51.476;7.210;2023-03-04T14:38:36;100848.00;;;11.40
11424;BMP180;5768;51.476;7.210;2023-03-04T14:43:52;100844.00;;;11.30
11424;BMP180;5768;51.476;7.210;2023-03-04T14:48:56;100834.00;;;11.20
11424;BMP180;5768;51.476;7.210;2023-03-04T14:53:58;100830.00;;;11.10
11424;BMP180;5768;51.476;7.210;2023-03-04T14:59:02;100823.00;;;11.00
11424;BMP180;5768;51.476;7.210;2023-03-04T15:04:06;100822.00;;;11.00
11424;BMP180;5768;51.476;7.210;2023-03-04T15:09:20;100820.00;;;11.10
11424;BMP180;5768;51.476;7.210;2023-03-04T15:14:46;100807.00;;;11.10
11424;BMP180;5768;51.476;7.210;2023-03-04T15:20:02;100821.00;;;11.10
11424;BMP180;5768;51.476;7.210;2023-03-04T15:25:14;100806.00;;;11.10
11424;BMP180;5768;51.476;7.210;2023-03-04T15:30:22;100807.00;;;10.90
11424;BMP180;5768;51.476;7.210;2023-03-04T15:35:29;100809.00;;;10.90
11424;BMP180;5768;51.476;7.210;2023-03-04T15:40:35;100805.00;;;10.90
11424;BMP180;5768;51.476;7.210;2023-03-04T15:45:40;100798.00;;;11.10
11424;BMP180;5768;51.476;7.210;2023-03-04T15:50:47;100809.00;;;11.20
11424;BMP180;5768;51.476;7.210;2023-03-04T15:55:50;100807.00;;;11.20
11424;BMP180;5768;51.476;7.210;2023-03-04T16:00:53;100805.00;;;11.00
11424;BMP180;5768;51.476;7.210;2023-03-04T16:05:56;100801.00;;;10.90
11424;BMP180;5768;51.476;7.210;2023-03-04T16:10:58;100807.00;;;10.90
11424;BMP180;5768;51.476;7.210;2023-03-04T16:16:02;100805.00;;;11.00
11424;BMP180;5768;51.476;7.210;2023-03-04T16:21:06;100800.00;;;11.40
11424;BMP180;5768;51.476;7.210;2023-03-04T16:26:19;100789.00;;;11.10
11424;BMP180;5768;51.476;7.210;2023-03-04T16:31:23;100795.00;;;10.90
11424;BMP180;5768;51.476;7.210;2023-03-04T16:36:26;100802.00;;;10.80
11424;BMP180;5768;51.476;7.210;2023-03-04T16:41:30;100796.00;;;10.60
11424;BMP180;5768;51.476;7.210;2023-03-04T16:46:33;100796.00;;;10.60
11424;BMP180;5768;51.476;7.210;2023-03-04T16:51:41;100803.00;;;10.70
11424;BMP180;5768;51.476;7.210;2023-03-04T16:56:44;100805.00;;;10.70
11424;BMP180;5768;51.476;7.210;2023-03-04T17:01:48;100805.00;;;10.60
11424;BMP180;5768;51.476;7.210;2023-03-04T17:06:50;100813.00;;;10.50
11424;BMP180;5768;51.476;7.210;2023-03-04T17:11:52;100791.00;;;10.40
11424;BMP180;5768;51.476;7.210;2023-03-04T17:16:58;100802.00;;;10.40
11424;BMP180;5768;51.476;7.210;2023-03-04T17:22:02;100797.00;;;10.40
11424;BMP180;5768;51.476;7.210;2023-03-04T17:27:04;100816.00;;;10.40
11424;BMP180;5768;51.476;7.210;2023-03-04T17:32:07;100804.00;;;10.40
11424;BMP180;5768;51.476;7.210;2023-03-04T17:37:09;100818.00;;;10.40
11424;BMP180;5768;51.476;7.210;2023-03-04T17:42:11;100810.00;;;10.40
11424;BMP180;5768;51.476;7.210;2023-03-04T17:47:15;100816.00;;;10.30
11424;BMP180;5768;51.476;7.210;2023-03-04T17:52:21;100814.00;;;10.30
11424;BMP180;5768;51.476;7.210;2023-03-04T17:57:23;100810.00;;;10.20
11424;BMP180;5768;51.476;7.210;2023-03-04T18:02:27;100810.00;;;10.20
11424;BMP180;5768;51.476;7.210;2023-03-04T18:07:29;100814.00;;;10.20
11424;BMP180;5768;51.476;7.210;2023-03-04T18:12:31;100819.00;;;10.10
11424;BMP180;5768;51.476;7.210;2023-03-04T18:17:35;100821.00;;;10.10
11424;BMP180;5768;51.476;7.210;2023-03-04T18:22:37;100822.00;;;10.10
11424;BMP180;5768;51.476;7.210;2023-03-04T18:27:41;100817.00;;;10.10
11424;BMP180;5768;51.476;7.210;2023-03-04T18:32:46;100819.00;;;10.10
11424;BMP180;5768;51.476;7.210;2023-03-04T18:37:48;100808.00;;;10.10
11424;BMP180;5768;51.476;7.210;2023-03-04T18:42:50;100821.00;;;10.10
11424;BMP180;5768;51.476;7.210;2023-03-04T18:47:54;100808.00;;;10.00
11424;BMP180;5768;51.476;7.210;2023-03-04T18:52:57;100805.00;;;10.00
11424;BMP180;5768;51.476;7.210;2023-03-04T18:57:59;100816.00;;;9.90
11424;BMP180;5768;51.476;7.210;2023-03-04T19:03:07;100820.00;;;9.90
11424;BMP180;5768;51.476;7.210;2023-03-04T19:08:10;100827.00;;;9.90
11424;BMP180;5768;51.476;7.210;2023-03-04T19:13:12;100820.00;;;9.80
11424;BMP180;5768;51.476;7.210;2023-03-04T19:18:19;100825.00;;;9.80
11424;BMP180;5768;51.476;7.210;2023-03-04T19:23:21;100819.00;;;9.90
11424;BMP180;5768;51.476;7.210;2023-03-04T19:28:24;100824.00;;;9.90
11424;BMP180;5768;51.476;7.210;2023-03-04T19:33:27;100833.00;;;9.80
11424;BMP180;5768;51.476;7.210;2023-03-04T19:38:30;100838.00;;;9.80
11424;BMP180;5768;51.476;7.210;2023-03-04T19:43:33;100835.00;;;9.80
11424;BMP180;5768;51.476;7.210;2023-03-04T19:48:39;100839.00;;;9.80
11424;BMP180;5768;51.476;7.210;2023-03-04T19:53:41;100827.00;;;9.80
11424;BMP180;5768;51.476;7.210;2023-03-04T19:58:43;100836.00;;;9.70
11424;BMP180;5768;51.476;7.210;2023-03-04T20:03:48;100835.00;;;9.70
11424;BMP180;5768;51.476;7.210;2023-03-04T20:08:50;100834.00;;;9.70
11424;BMP180;5768;51.476;7.210;2023-03-04T20:13:56;100844.00;;;9.70
11424;BMP180;5768;51.476;7.210;2023-03-04T20:19:06;100827.00;;;9.70
11424;BMP180;5768;51.476;7.210;2023-03-04T20:24:08;100827.00;;;9.80
11424;BMP180;5768;51.476;7.210;2023-03-04T20:29:11;100828.00;;;9.80
11424;BMP180;5768;51.476;7.210;2023-03-04T20:34:14;100836.00;;;9.90
11424;BMP180;5768;51.476;7.210;2023-03-04T20:39:16;100830.00;;;9.80
11424;BMP180;5768;51.476;7.210;2023-03-04T20:44:18;100845.00;;;9.80
11424;BMP180;5768;51.476;7.210;2023-03-04T20:49:24;100836.00;;;9.80
11424;BMP180;5768;51.476;7.210;2023-03-04T20:54:29;100836.00;;;9.80
11424;BMP180;5768;51.476;7.210;2023-03-04T20:59:31;100835.00;;;9.80
11424;BMP180;5768;51.476;7.210;2023-03-04T21:04:36;100831.00;;;9.70
11424;BMP180;5768;51.476;7.210;2023-03-04T21:09:41;100833.00;;;9.70
11424;BMP180;5768;51.476;7.210;2023-03-04T21:14:44;100836.00;;;9.70
11424;BMP180;5768;51.476;7.210;2023-03-04T21:19:47;100828.00;;;9.70
11424;BMP180;5768;51.476;7.210;2023-03-04T21:24:49;100827.00;;;9.80
11424;BMP180;5768;51.476;7.210;2023-03-04T21:29:52;100823.00;;;9.70
11424;BMP180;5768;51.476;7.210;2023-03-04T21:34:55;100814.00;;;9.70
11424;BMP180;5768;51.476;7.210;2023-03-04T21:39:57;100816.00;;;9.80
11424;BMP180;5768;51.476;7.210;2023-03-04T21:45:01;100818.00;;;9.70
11424;BMP180;5768;51.476;7.210;2023-03-04T21:50:06;100811.00;;;9.80
11424;BMP180;5768;51.476;7.210;2023-03-04T21:55:08;100818.00;;;9.70
11424;BMP180;5768;51.476;7.210;2023-03-04T22:00:12;100812.00;;;9.70
11424;BMP180;5768;51.476;7.210;2023-03-04T22:05:17;100805.00;;;9.70
11424;BMP180;5768;51.476;7.210;2023-03-04T22:10:19;100804.00;;;9.70
11424;BMP180;5768;51.476;7.210;2023-03-04T22:15:21;100794.00;;;9.60
11424;BMP180;5768;51.476;7.210;2023-03-04T22:20:24;100797.00;;;9.60
11424;BMP180;5768;51.476;7.210;2023-03-04T22:25:27;100790.00;;;9.50
11424;BMP180;5768;51.476;7.210;2023-03-04T22:30:30;100788.00;;;9.50
11424;BMP180;5768;51.476;7.210;2023-03-04T22:35:37;100778.00;;;9.50
11424;BMP180;5768;51.476;7.210;2023-03-04T22:40:40;100779.00;;;9.50
11424;BMP180;5768;51.476;7.210;2023-03-04T22:45:42;100779.00;;;9.50
11424;BMP180;5768;51.476;7.210;2023-03-04T22:50:46;100776.00;;;9.50
11424;BMP180;5768;51.476;7.210;2023-03-04T22:55:50;100782.00;;;9.50
11424;BMP180;5768;51.476;7.210;2023-03-04T23:00:57;100772.00;;;9.30
11424;BMP180;5768;51.476;7.210;2023-03-04T23:06:04;100762.00;;;9.20
11424;BMP180;5768;51.476;7.210;2023-03-04T23:11:10;100763.00;;;9.30
11424;BMP180;5768;51.476;7.210;2023-03-04T23:16:14;100764.00;;;9.10
11424;BMP180;5768;51.476;7.210;2023-03-04T23:21:22;100771.00;;;9.00
11424;BMP180;5768;51.476;7.210;2023-03-04T23:26:27;100756.00;;;9.00
11424;BMP180;5768;51.476;7.210;2023-03-04T23:31:33;100751.00;;;9.00
11424;BMP180;5768;51.476;7.210;2023-03-04T23:36:37;100746.00;;;9.00
11424;BMP180;5768;51.476;7.210;2023-03-04T23:41:39;100743.00;;;9.00
11424;BMP180;5768;51.476;7.210;2023-03-04T23:46:41;100742.00;;;9.00
11424;BMP180;5768;51.476;7.210;2023-03-04T23:51:45;100757.00;;;8.90
11424;BMP180;5768;51.476;7.210;2023-03-04T23:56:47;100748.00;;;8.80
